Seul Choix Point, Michigan
Current Conditions -  °F | °C
As of 8:15 AM on Thursday 18 Dec 2014 (Local Time) from KISQ Reporting Station
Clear Clear  
Wind Chill:   Ceiling: Unl
Heat Index: 18°   Visibility: 10mi
Dew Point: 16°   Wind: 8mph
Humidity: 92%   Direction: 10°N
Pressure: 30.25"   Gusts: NA
Location:  45.92°N, 85.92°W
Report Text: KISQ 181315Z AUTO 01007KT 10SM CLR M08/M09 A3025 RMK AO2 T10791090
Loading
Personal Weather Stations






























Interactive Weather Map New forecast layout! Learn more

10-Day Weather Forecast

Advertisements
Track Severe Weather on mobile